Time;durP1;ratioP1;P1;durP2;ratioP2;P2;SDS_P1;SDS_P2;PMS_P1;PMS_P2;Temp;Humidity;BMP_temperature;BMP_pressure;BME280_temperature;BME280_humidity;BME280_pressure;Samples;Min_cycle;Max_cycle;Signal;HPM_P1;HPM_P2
2022/12/19 00:01:25;;;;;;;;;;;;;;;5.80;54.67;100926.63;4779861;29;7886;-72
2022/12/19 00:04:14;;;;;;;;;;;;;;;5.83;54.73;100917.56;4778216;29;6813;-72
2022/12/19 00:06:40;;;;;;;;;;;;;;;5.87;54.90;100900.88;4795641;29;6868;-72
2022/12/19 00:09:06;;;;;;;;;;;;;;;5.92;54.79;100906.28;4780778;29;6837;-72
2022/12/19 00:11:33;;;;;;;;;;;;;;;5.93;54.83;100916.59;4788972;29;7016;-72
2022/12/19 00:13:59;;;;;;;;;;;;;;;5.94;54.57;100900.56;4778081;29;6861;-72
2022/12/19 00:16:28;;;;;;;;;;;;;;;5.96;55.12;100885.41;4763352;29;8847;-72
2022/12/19 00:18:57;;;;;;;;;;;;;;;5.98;54.74;100884.72;4777861;29;6786;-72
2022/12/19 00:21:27;;;;;;;;;;;;;;;6.00;54.83;100884.00;4760383;29;9040;-72
2022/12/19 00:23:53;;;;;;;;;;;;;;;6.01;54.87;100870.50;4779042;29;9530;-72
2022/12/19 00:26:24;;;;;;;;;;;;;;;6.03;54.96;100863.88;4776046;29;8745;-72
2022/12/19 00:28:57;;;;;;;;;;;;;;;6.03;55.24;100871.50;4787414;29;6805;-72
2022/12/19 00:31:25;;;;;;;;;;;;;;;6.02;55.11;100877.38;4782453;29;6993;-72
2022/12/19 00:33:51;;;;;;;;;;;;;;;6.04;55.43;100873.28;4779431;29;6869;-72
2022/12/19 00:36:20;;;;;;;;;;;;;;;6.06;54.96;100862.44;4791300;29;6954;-72
2022/12/19 00:38:51;;;;;;;;;;;;;;;6.08;55.33;100872.72;4780986;29;7788;-72
2022/12/19 00:41:24;;;;;;;;;;;;;;;6.11;55.18;100898.44;4778386;29;6989;-72
2022/12/19 00:44:03;;;;;;;;;;;;;;;6.13;55.12;100901.97;4797093;29;6813;-72
2022/12/19 00:46:30;;;;;;;;;;;;;;;6.16;55.36;100909.81;4772112;29;7842;-72
2022/12/19 00:48:56;;;;;;;;;;;;;;;6.20;55.58;100910.94;4778948;29;7352;-72
2022/12/19 00:51:26;;;;;;;;;;;;;;;6.24;55.18;100906.19;4776426;29;6777;-72
2022/12/19 00:53:54;;;;;;;;;;;;;;;6.26;55.15;100896.13;4775966;29;6801;-72
2022/12/19 00:56:25;;;;;;;;;;;;;;;6.29;55.11;100878.50;4795637;29;8302;-72
2022/12/19 00:58:52;;;;;;;;;;;;;;;6.32;54.87;100870.22;4768667;29;7097;-72
2022/12/19 01:01:22;;;;;;;;;;;;;;;6.33;54.98;100870.34;4785168;29;6963;-72
2022/12/19 01:03:48;;;;;;;;;;;;;;;6.32;54.83;100866.00;4778063;29;7371;-72
2022/12/19 01:06:14;;;;;;;;;;;;;;;6.35;55.23;100860.25;4782962;29;6781;-72
2022/12/19 01:08:40;;;;;;;;;;;;;;;6.35;55.36;100865.34;4785978;29;6781;-72
2022/12/19 01:11:06;;;;;;;;;;;;;;;6.36;54.79;100864.56;4784598;29;6801;-72
2022/12/19 01:13:35;;;;;;;;;;;;;;;6.36;55.34;100869.66;4788806;29;8526;-72
2022/12/19 01:16:09;;;;;;;;;;;;;;;6.37;55.60;100863.78;4783748;29;6805;-72
2022/12/19 01:18:35;;;;;;;;;;;;;;;6.38;55.37;100857.94;4774981;29;6903;-72
2022/12/19 01:21:07;;;;;;;;;;;;;;;6.41;55.35;100855.59;4788637;29;6789;-72
2022/12/19 01:23:34;;;;;;;;;;;;;;;6.45;55.40;100831.25;4785586;29;7800;-72
2022/12/19 01:25:59;;;;;;;;;;;;;;;6.48;55.07;100834.00;4788860;29;6801;-72
2022/12/19 01:28:25;;;;;;;;;;;;;;;6.50;55.80;100832.44;4807342;29;6785;-72
2022/12/19 01:30:51;;;;;;;;;;;;;;;6.52;55.60;100836.88;4802336;29;10317;-72
2022/12/19 01:33:19;;;;;;;;;;;;;;;6.57;55.44;100833.75;4778252;29;6950;-72
2022/12/19 01:35:46;;;;;;;;;;;;;;;6.60;55.34;100829.78;4783899;29;7272;-72
2022/12/19 01:38:18;;;;;;;;;;;;;;;6.64;55.44;100830.88;4792901;29;6942;-72
2022/12/19 01:40:54;;;;;;;;;;;;;;;6.70;55.32;100827.88;4775617;29;6821;-72
2022/12/19 01:43:23;;;;;;;;;;;;;;;6.74;55.26;100822.25;4797471;29;6817;-72
2022/12/19 01:45:56;;;;;;;;;;;;;;;6.78;55.32;100804.72;4757778;29;7050;-72
2022/12/19 01:48:33;;;;;;;;;;;;;;;6.84;55.28;100799.19;4759276;29;8492;-72
2022/12/19 01:51:39;;;;;;;;;;;;;;;6.89;55.96;100781.66;4764624;29;7754;-72
2022/12/19 01:54:09;;;;;;;;;;;;;;;6.92;55.24;100781.84;4784593;29;6821;-72
2022/12/19 01:56:41;;;;;;;;;;;;;;;6.95;55.91;100772.75;4779750;29;6805;-72
2022/12/19 01:59:17;;;;;;;;;;;;;;;7.01;55.73;100772.28;4789381;29;6797;-72
2022/12/19 02:01:44;;;;;;;;;;;;;;;7.07;55.73;100759.97;4777610;29;6805;-72
2022/12/19 02:04:12;;;;;;;;;;;;;;;7.14;55.67;100761.28;4781669;29;10012;-72
2022/12/19 02:06:41;;;;;;;;;;;;;;;7.20;56.00;100766.78;4771207;29;8473;-72
2022/12/19 02:09:08;;;;;;;;;;;;;;;7.28;55.96;100764.75;4779442;29;6881;-72
2022/12/19 02:11:33;;;;;;;;;;;;;;;7.38;56.64;100768.78;4758447;29;7004;-72
2022/12/19 02:13:59;;;;;;;;;;;;;;;7.48;56.54;100762.66;4783885;29;6979;-73
2022/12/19 02:16:54;;;;;;;;;;;;;;;7.57;56.61;100749.59;4795567;29;6927;-72
2022/12/19 02:20:06;;;;;;;;;;;;;;;7.67;56.81;100743.44;4776593;29;6832;-72
2022/12/19 02:22:34;;;;;;;;;;;;;;;7.73;56.09;100738.75;4783463;29;6848;-72
2022/12/19 02:25:44;;;;;;;;;;;;;;;7.80;55.38;100752.78;4791627;29;6864;-72
2022/12/19 02:28:33;;;;;;;;;;;;;;;7.81;56.42;100732.44;4778556;29;8814;-72
2022/12/19 02:31:24;;;;;;;;;;;;;;;7.86;55.78;100723.44;4776949;29;8632;-72
2022/12/19 02:34:35;;;;;;;;;;;;;;;7.90;56.27;100720.28;4793803;29;8911;-72
2022/12/19 02:37:07;;;;;;;;;;;;;;;7.94;56.95;100710.28;4780155;29;7008;-72
2022/12/19 02:39:47;;;;;;;;;;;;;;;8.06;57.49;100708.50;4782441;29;6829;-72
2022/12/19 02:42:32;;;;;;;;;;;;;;;8.31;58.25;100692.19;4764442;29;7012;-73
2022/12/19 02:45:01;;;;;;;;;;;;;;;8.60;58.03;100701.66;4779146;29;7168;-72
2022/12/19 02:47:30;;;;;;;;;;;;;;;8.91;59.72;100687.28;4793925;29;7191;-73
2022/12/19 02:49:56;;;;;;;;;;;;;;;9.24;59.46;100700.25;4764263;29;7040;-72
2022/12/19 02:52:21;;;;;;;;;;;;;;;9.51;58.36;100697.53;4791648;29;6967;-72
2022/12/19 02:54:54;;;;;;;;;;;;;;;9.74;58.20;100690.25;4795866;29;7093;-73
2022/12/19 02:57:54;;;;;;;;;;;;;;;9.99;58.13;100678.84;4786532;29;6806;-73
2022/12/19 03:00:24;;;;;;;;;;;;;;;10.10;58.47;100682.84;4784120;29;6809;-73
2022/12/19 03:03:06;;;;;;;;;;;;;;;10.21;58.71;100677.44;4784994;29;6794;-73
2022/12/19 03:05:57;;;;;;;;;;;;;;;10.26;58.21;100670.88;4785264;29;7104;-72
2022/12/19 03:08:38;;;;;;;;;;;;;;;10.31;58.56;100666.00;4791984;29;6873;-73
2022/12/19 03:11:10;;;;;;;;;;;;;;;10.34;58.55;100664.50;4802056;29;6943;-72
2022/12/19 03:13:57;;;;;;;;;;;;;;;10.38;58.54;100650.13;4770699;29;6873;-72
2022/12/19 03:16:24;;;;;;;;;;;;;;;10.38;59.07;100676.66;4786818;29;6805;-73
2022/12/19 03:18:53;;;;;;;;;;;;;;;10.43;58.68;100674.38;4792079;29;6940;-73
2022/12/19 03:21:33;;;;;;;;;;;;;;;10.42;58.94;100673.47;4786099;29;8614;-72
2022/12/19 03:24:01;;;;;;;;;;;;;;;10.44;58.43;100675.28;4802692;29;7152;-72
2022/12/19 03:26:39;;;;;;;;;;;;;;;10.40;58.85;100669.94;4779851;29;6824;-73
2022/12/19 03:29:33;;;;;;;;;;;;;;;10.38;58.38;100666.41;4775654;29;8525;-72
2022/12/19 03:32:04;;;;;;;;;;;;;;;10.37;58.54;100651.84;4793196;29;6809;-72
2022/12/19 03:35:07;;;;;;;;;;;;;;;10.34;58.95;100659.38;4758293;29;7179;-72
2022/12/19 03:37:38;;;;;;;;;;;;;;;10.29;59.26;100653.13;4799903;29;6975;-71
2022/12/19 03:40:13;;;;;;;;;;;;;;;10.31;59.27;100655.75;4776881;29;7925;-71
2022/12/19 03:45:38;;;;;;;;;;;;;;;10.26;59.82;100655.53;4798835;29;6817;-70
2022/12/19 03:48:28;;;;;;;;;;;;;;;10.27;59.00;100654.72;4798998;29;6786;-71
2022/12/19 03:51:47;;;;;;;;;;;;;;;10.25;59.71;100654.63;4794835;29;8949;-71
2022/12/19 03:54:23;;;;;;;;;;;;;;;10.25;59.39;100657.19;4790476;29;6978;-71
2022/12/19 03:57:18;;;;;;;;;;;;;;;10.27;59.37;100652.16;4791272;29;6801;-70
2022/12/19 03:59:54;;;;;;;;;;;;;;;10.29;60.03;100650.56;4787861;29;6829;-70
2022/12/19 04:02:22;;;;;;;;;;;;;;;10.32;59.33;100643.00;4785487;29;6805;-71
2022/12/19 04:04:59;;;;;;;;;;;;;;;10.32;59.58;100645.56;4774990;29;7207;-71
2022/12/19 04:07:26;;;;;;;;;;;;;;;10.34;59.95;100646.56;4771685;29;7337;-70
2022/12/19 04:09:57;;;;;;;;;;;;;;;10.35;60.20;100634.63;4768855;29;6817;-70
2022/12/19 04:12:38;;;;;;;;;;;;;;;10.37;60.06;100645.81;4764042;29;7030;-69
2022/12/19 04:15:05;;;;;;;;;;;;;;;10.40;60.21;100643.44;4771416;29;7005;-71
2022/12/19 04:17:46;;;;;;;;;;;;;;;10.43;60.40;100628.25;4781106;29;7040;-71
2022/12/19 04:20:16;;;;;;;;;;;;;;;10.44;60.39;100636.84;4777796;29;7046;-70
2022/12/19 04:23:06;;;;;;;;;;;;;;;10.48;60.25;100631.06;4777606;29;6836;-72
2022/12/19 04:25:39;;;;;;;;;;;;;;;10.48;60.54;100636.19;4779534;29;6893;-71
2022/12/19 04:28:36;;;;;;;;;;;;;;;10.51;60.93;100642.34;4755459;29;6988;-70
2022/12/19 04:31:04;;;;;;;;;;;;;;;10.52;60.74;100648.34;4772028;29;6829;-71
2022/12/19 04:33:30;;;;;;;;;;;;;;;10.54;60.73;100639.94;4785976;29;7011;-71
2022/12/19 04:35:56;;;;;;;;;;;;;;;10.60;60.85;100654.75;4751119;29;8502;-71
2022/12/19 04:38:22;;;;;;;;;;;;;;;10.64;60.81;100649.00;4767264;29;6873;-71
2022/12/19 04:40:47;;;;;;;;;;;;;;;10.67;60.93;100644.03;4780704;29;6794;-70
2022/12/19 04:43:13;;;;;;;;;;;;;;;10.70;60.99;100644.16;4760863;29;8578;-69
2022/12/19 04:45:42;;;;;;;;;;;;;;;10.74;60.76;100639.22;4778467;29;6910;-70
2022/12/19 04:48:07;;;;;;;;;;;;;;;10.75;60.76;100636.72;4775558;29;6785;-71
2022/12/19 04:50:34;;;;;;;;;;;;;;;10.76;60.69;100632.47;4792151;29;6846;-70
2022/12/19 04:53:00;;;;;;;;;;;;;;;10.76;60.74;100633.34;4770531;29;7618;-72
2022/12/19 04:55:26;;;;;;;;;;;;;;;10.79;60.58;100623.25;4776170;29;6821;-71
2022/12/19 04:57:52;;;;;;;;;;;;;;;10.82;61.03;100619.97;4772121;29;7012;-71
2022/12/19 05:00:17;;;;;;;;;;;;;;;10.82;60.67;100617.41;4776350;29;8587;-70
2022/12/19 05:02:44;;;;;;;;;;;;;;;10.84;60.47;100620.94;4780797;29;6777;-70
2022/12/19 05:05:10;;;;;;;;;;;;;;;10.80;60.80;100613.88;4778935;29;6794;-71
2022/12/19 05:07:36;;;;;;;;;;;;;;;10.81;60.76;100607.94;4789209;29;6915;-70
2022/12/19 05:10:02;;;;;;;;;;;;;;;10.82;60.66;100631.09;4791995;29;7556;-69
2022/12/19 05:12:28;;;;;;;;;;;;;;;10.85;60.76;100627.81;4785273;29;7305;-68
2022/12/19 05:14:54;;;;;;;;;;;;;;;10.88;60.80;100638.22;4792680;29;6781;-69
2022/12/19 05:17:19;;;;;;;;;;;;;;;10.90;61.13;100635.75;4794453;29;7003;-70
2022/12/19 05:19:46;;;;;;;;;;;;;;;10.91;61.46;100617.88;4795829;29;6946;-69
2022/12/19 05:22:11;;;;;;;;;;;;;;;10.97;61.13;100618.16;4793329;29;6797;-72
2022/12/19 05:24:37;;;;;;;;;;;;;;;11.00;61.37;100611.41;4794153;29;6897;-71
2022/12/19 05:27:03;;;;;;;;;;;;;;;11.07;61.27;100608.38;4794305;29;7583;-71
2022/12/19 05:29:28;;;;;;;;;;;;;;;11.09;61.00;100601.63;4780477;29;7570;-71
2022/12/19 05:31:54;;;;;;;;;;;;;;;11.09;60.70;100591.34;4790480;29;6785;-70
2022/12/19 05:34:20;;;;;;;;;;;;;;;11.11;61.10;100590.63;4784341;29;6803;-70
2022/12/19 05:36:45;;;;;;;;;;;;;;;11.11;61.42;100603.47;4795666;29;6861;-71
2022/12/19 05:39:11;;;;;;;;;;;;;;;11.11;61.12;100602.59;4799832;29;8049;-70
2022/12/19 05:41:36;;;;;;;;;;;;;;;11.13;61.09;100597.53;4800072;29;6773;-70
2022/12/19 05:44:02;;;;;;;;;;;;;;;11.16;61.50;100608.81;4773958;29;6766;-69
2022/12/19 05:46:28;;;;;;;;;;;;;;;11.18;60.83;100612.31;4781815;29;6933;-70
2022/12/19 05:48:54;;;;;;;;;;;;;;;11.21;61.21;100621.88;4782037;29;6770;-70
2022/12/19 05:51:20;;;;;;;;;;;;;;;11.25;61.01;100619.53;4772999;29;7618;-71
2022/12/19 05:53:45;;;;;;;;;;;;;;;11.27;61.16;100614.47;4800123;29;6794;-71
2022/12/19 05:56:15;;;;;;;;;;;;;;;11.30;61.10;100618.84;4800753;29;6785;-71
2022/12/19 05:58:41;;;;;;;;;;;;;;;11.34;60.78;100623.34;4785858;29;7322;-70
2022/12/19 06:01:15;;;;;;;;;;;;;;;11.36;60.82;100629.44;4782547;29;6865;-70
2022/12/19 06:03:41;;;;;;;;;;;;;;;11.38;61.06;100630.38;4789833;29;8166;-71
2022/12/19 06:06:17;;;;;;;;;;;;;;;11.39;61.23;100632.13;4773859;29;8469;-70
2022/12/19 06:08:43;;;;;;;;;;;;;;;11.39;61.34;100625.31;4768026;29;7552;-70
2022/12/19 06:11:10;;;;;;;;;;;;;;;11.43;60.94;100615.19;4763490;29;8493;-71
2022/12/19 06:13:37;;;;;;;;;;;;;;;11.46;60.59;100634.19;4784092;29;6967;-71
2022/12/19 06:16:18;;;;;;;;;;;;;;;11.50;60.93;100635.22;4790107;29;8608;-71
2022/12/19 06:18:45;;;;;;;;;;;;;;;11.50;60.35;100641.25;4791020;29;6914;-70
2022/12/19 06:21:16;;;;;;;;;;;;;;;11.49;60.98;100631.81;4785357;29;6919;-71
2022/12/19 06:23:42;;;;;;;;;;;;;;;11.49;60.96;100630.91;4801869;29;6810;-69
2022/12/19 06:26:12;;;;;;;;;;;;;;;11.48;60.82;100624.00;4804627;29;7132;-69
2022/12/19 06:28:37;;;;;;;;;;;;;;;11.46;60.87;100631.63;4798454;29;7911;-69
2022/12/19 06:31:05;;;;;;;;;;;;;;;11.45;60.48;100640.13;4794964;29;6872;-70
2022/12/19 06:33:31;;;;;;;;;;;;;;;11.44;60.29;100632.34;4785247;29;7020;-69
2022/12/19 06:36:25;;;;;;;;;;;;;;;11.41;60.21;100632.22;4778182;29;6789;-69
2022/12/19 06:38:54;;;;;;;;;;;;;;;11.38;60.43;100623.56;4779704;29;7721;-69
2022/12/19 06:44:10;;;;;;;;;;;;;;;11.36;60.73;100637.13;4779360;29;6977;-70
2022/12/19 06:46:36;;;;;;;;;;;;;;;11.35;60.27;100631.13;4791473;29;7543;-70
2022/12/19 06:49:04;;;;;;;;;;;;;;;11.35;60.12;100628.56;4792504;29;8572;-70
2022/12/19 06:51:30;;;;;;;;;;;;;;;11.35;60.01;100619.97;4758904;29;9927;-71
2022/12/19 06:53:56;;;;;;;;;;;;;;;11.35;60.44;100630.25;4800813;29;6816;-69
2022/12/19 06:56:22;;;;;;;;;;;;;;;11.35;59.97;100630.25;4799202;29;6991;-72
2022/12/19 06:58:48;;;;;;;;;;;;;;;11.35;60.34;100631.13;4780233;29;6777;-71
2022/12/19 07:01:59;;;;;;;;;;;;;;;11.32;60.06;100632.66;4783664;29;6781;-70
2022/12/19 07:04:40;;;;;;;;;;;;;;;11.30;60.90;100644.50;4787181;29;6901;-70
2022/12/19 07:07:06;;;;;;;;;;;;;;;11.31;60.69;100644.59;4799502;29;9816;-71
2022/12/19 07:09:33;;;;;;;;;;;;;;;11.33;60.80;100631.84;4805533;29;6802;-72
2022/12/19 07:12:01;;;;;;;;;;;;;;;11.37;60.61;100638.88;4784888;29;6840;-72
2022/12/19 07:14:26;;;;;;;;;;;;;;;11.46;60.57;100641.91;4791677;29;7211;-72
2022/12/19 07:16:54;;;;;;;;;;;;;;;11.53;60.11;100635.38;4797183;29;6775;-71
2022/12/19 07:19:21;;;;;;;;;;;;;;;11.60;59.67;100636.56;4795442;29;7008;-70
2022/12/19 07:21:47;;;;;;;;;;;;;;;11.62;60.22;100634.94;4793823;29;7107;-70
2022/12/19 07:24:14;;;;;;;;;;;;;;;11.65;59.74;100641.09;4778397;29;7403;-70
2022/12/19 07:26:42;;;;;;;;;;;;;;;11.66;59.77;100641.97;4776222;29;7775;-70
2022/12/19 07:29:09;;;;;;;;;;;;;;;11.67;59.63;100636.03;4784817;29;6831;-70
2022/12/19 07:31:35;;;;;;;;;;;;;;;11.68;60.08;100645.47;4800491;29;6850;-70
2022/12/19 07:34:00;;;;;;;;;;;;;;;11.73;59.41;100644.03;4783225;29;7244;-71
2022/12/19 07:36:26;;;;;;;;;;;;;;;11.77;59.21;100645.91;4795520;29;6868;-69
2022/12/19 07:38:51;;;;;;;;;;;;;;;11.79;59.45;100653.72;4789314;29;6769;-70
2022/12/19 07:41:17;;;;;;;;;;;;;;;11.80;59.80;100650.31;4781859;29;8399;-70
2022/12/19 07:43:44;;;;;;;;;;;;;;;11.79;59.43;100644.31;4806046;29;6761;-71
2022/12/19 07:46:10;;;;;;;;;;;;;;;11.80;59.46;100646.09;4787332;29;6961;-70
2022/12/19 07:48:36;;;;;;;;;;;;;;;11.78;59.25;100647.72;4780557;29;6797;-70
2022/12/19 07:51:03;;;;;;;;;;;;;;;11.75;59.67;100655.25;4797288;29;6786;-71
2022/12/19 07:53:28;;;;;;;;;;;;;;;11.72;59.28;100652.53;4787952;29;6872;-70
2022/12/19 07:55:54;;;;;;;;;;;;;;;11.72;58.99;100651.66;4783867;29;7465;-70
2022/12/19 07:58:19;;;;;;;;;;;;;;;11.72;59.52;100646.50;4773392;29;7252;-71
2022/12/19 08:00:54;;;;;;;;;;;;;;;11.72;59.38;100659.34;4779599;29;6964;-71
2022/12/19 08:03:19;;;;;;;;;;;;;;;11.69;59.86;100666.91;4781331;29;6817;-71
2022/12/19 08:05:45;;;;;;;;;;;;;;;11.69;59.96;100657.53;4772740;29;6909;-70
2022/12/19 08:08:10;;;;;;;;;;;;;;;11.67;59.61;100667.72;4788970;29;8250;-70
2022/12/19 08:10:36;;;;;;;;;;;;;;;11.67;60.17;100643.72;4791372;29;12591;-70
2022/12/19 08:13:02;;;;;;;;;;;;;;;11.68;59.79;100660.88;4794723;29;6936;-70
2022/12/19 08:15:27;;;;;;;;;;;;;;;11.67;60.26;100660.03;4782971;29;6776;-69
2022/12/19 08:17:53;;;;;;;;;;;;;;;11.69;60.34;100660.09;4798239;29;6914;-71
2022/12/19 08:20:19;;;;;;;;;;;;;;;11.71;59.80;100671.31;4777507;29;6793;-70
2022/12/19 08:22:44;;;;;;;;;;;;;;;11.77;60.15;100663.91;4775113;29;8576;-71
2022/12/19 08:25:11;;;;;;;;;;;;;;;11.84;59.74;100659.06;4790623;29;7858;-71
2022/12/19 08:27:36;;;;;;;;;;;;;;;11.91;59.66;100659.41;4771216;29;6884;-71
2022/12/19 08:30:03;;;;;;;;;;;;;;;12.02;59.50;100659.94;4792374;29;6780;-71
2022/12/19 08:32:29;;;;;;;;;;;;;;;12.06;59.34;100664.41;4787243;29;6940;-70
2022/12/19 08:34:55;;;;;;;;;;;;;;;12.10;59.41;100668.00;4784397;29;7211;-71
2022/12/19 08:37:21;;;;;;;;;;;;;;;12.13;59.09;100663.03;4788400;29;6789;-71
2022/12/19 08:39:47;;;;;;;;;;;;;;;12.16;59.47;100659.69;4789338;29;6773;-71
2022/12/19 08:42:12;;;;;;;;;;;;;;;12.21;59.54;100655.66;4803624;29;8396;-71
2022/12/19 08:44:38;;;;;;;;;;;;;;;12.28;59.19;100656.81;4787180;29;7225;-71
2022/12/19 08:47:04;;;;;;;;;;;;;;;12.33;58.29;100658.78;4785421;29;8621;-70
2022/12/19 08:49:29;;;;;;;;;;;;;;;12.39;58.25;100644.44;4790802;29;6999;-71
2022/12/19 08:51:55;;;;;;;;;;;;;;;12.45;58.01;100645.59;4788601;29;6777;-72
2022/12/19 08:54:20;;;;;;;;;;;;;;;12.51;58.49;100657.84;4788047;29;6776;-70
2022/12/19 08:56:46;;;;;;;;;;;;;;;12.57;57.97;100663.25;4804153;29;6780;-70
2022/12/19 08:59:12;;;;;;;;;;;;;;;12.59;58.19;100659.06;4790238;29;7321;-71
2022/12/19 09:01:39;;;;;;;;;;;;;;;12.64;57.16;100665.25;4790590;29;6880;-70
2022/12/19 09:04:04;;;;;;;;;;;;;;;12.68;57.98;100675.72;4795925;29;6804;-71
2022/12/19 09:06:30;;;;;;;;;;;;;;;12.73;57.52;100681.91;4769296;29;6967;-71
2022/12/19 09:08:55;;;;;;;;;;;;;;;12.78;56.81;100680.44;4776521;29;6789;-72
2022/12/19 09:11:21;;;;;;;;;;;;;;;12.83;56.93;100684.06;4790307;29;7098;-71
2022/12/19 09:13:49;;;;;;;;;;;;;;;12.88;56.76;100685.16;4789251;29;7899;-71
2022/12/19 09:16:21;;;;;;;;;;;;;;;12.94;57.09;100686.22;4780769;29;6833;-70
2022/12/19 09:18:53;;;;;;;;;;;;;;;12.98;57.04;100682.97;4779216;29;6809;-71
2022/12/19 09:21:22;;;;;;;;;;;;;;;13.02;56.57;100682.28;4781714;29;7374;-71
2022/12/19 09:23:52;;;;;;;;;;;;;;;13.06;56.38;100684.19;4776170;29;7485;-71
2022/12/19 09:26:20;;;;;;;;;;;;;;;13.09;56.08;100683.44;4793852;29;6833;-70
2022/12/19 09:28:47;;;;;;;;;;;;;;;13.12;55.79;100694.72;4779975;29;6798;-70
2022/12/19 09:31:19;;;;;;;;;;;;;;;13.12;56.11;100687.00;4766771;29;8859;-72
2022/12/19 09:33:45;;;;;;;;;;;;;;;13.15;55.25;100683.69;4783341;29;7302;-71
2022/12/19 09:36:23;;;;;;;;;;;;;;;13.17;55.69;100689.78;4774250;29;8809;-71
2022/12/19 09:38:53;;;;;;;;;;;;;;;13.18;56.02;100689.84;4787061;29;6937;-72
2022/12/19 09:41:55;;;;;;;;;;;;;;;13.24;55.79;100693.50;4784636;29;6989;-71
2022/12/19 09:44:47;;;;;;;;;;;;;;;13.27;55.06;100703.91;4806094;29;6801;-71
2022/12/19 09:47:22;;;;;;;;;;;;;;;13.32;55.99;100702.41;4774927;29;7380;-71
2022/12/19 09:49:50;;;;;;;;;;;;;;;13.37;55.59;100702.59;4786862;29;6965;-71
2022/12/19 09:52:44;;;;;;;;;;;;;;;13.44;55.67;100696.88;4781061;29;6869;-70
2022/12/19 09:55:31;;;;;;;;;;;;;;;13.49;55.06;100695.44;4783731;29;7325;-71
2022/12/19 09:58:22;;;;;;;;;;;;;;;13.55;55.27;100690.50;4763653;29;8637;-72
2022/12/19 10:00:56;;;;;;;;;;;;;;;13.61;54.65;100690.78;4784839;29;6805;-72
2022/12/19 10:03:40;;;;;;;;;;;;;;;13.67;54.97;100689.28;4786560;29;6821;-72
2022/12/19 10:06:17;;;;;;;;;;;;;;;13.71;55.17;100696.28;4783930;29;6961;-71
2022/12/19 10:08:44;;;;;;;;;;;;;;;13.74;55.12;100698.97;4795692;29;6995;-71
2022/12/19 10:11:13;;;;;;;;;;;;;;;13.79;54.63;100699.16;4775133;29;7014;-72
2022/12/19 10:14:17;;;;;;;;;;;;;;;13.82;54.17;100689.00;4799775;29;9826;-72
2022/12/19 10:17:17;;;;;;;;;;;;;;;13.84;54.69;100684.78;4796462;29;7016;-71
2022/12/19 10:20:18;;;;;;;;;;;;;;;13.82;54.32;100674.41;4792958;29;6897;-72
2022/12/19 10:23:24;;;;;;;;;;;;;;;13.85;54.61;100671.06;4801357;29;7167;-72
2022/12/19 10:26:04;;;;;;;;;;;;;;;13.86;54.07;100666.00;4807672;29;7012;-72
2022/12/19 10:28:54;;;;;;;;;;;;;;;13.89;54.55;100665.19;4793963;29;6825;-72
2022/12/19 10:31:41;;;;;;;;;;;;;;;13.92;54.08;100670.50;4801254;29;6817;-72
2022/12/19 10:34:23;;;;;;;;;;;;;;;13.93;54.60;100667.09;4793107;29;6797;-71
2022/12/19 10:36:56;;;;;;;;;;;;;;;13.99;53.90;100666.44;4780298;29;7157;-71
2022/12/19 10:40:04;;;;;;;;;;;;;;;14.05;54.93;100671.84;4805247;29;6817;-72
2022/12/19 10:42:47;;;;;;;;;;;;;;;14.10;53.94;100669.41;4788482;29;7199;-71
2022/12/19 10:45:20;;;;;;;;;;;;;;;14.16;54.73;100672.25;4802205;29;6912;-71
2022/12/19 10:47:50;;;;;;;;;;;;;;;14.24;53.65;100677.66;4789997;29;6962;-72
2022/12/19 10:50:26;;;;;;;;;;;;;;;14.30;54.28;100675.34;4780572;29;8332;-70
2022/12/19 10:53:12;;;;;;;;;;;;;;;14.37;54.16;100681.59;4770901;29;8420;-70
2022/12/19 10:55:52;;;;;;;;;;;;;;;14.44;53.86;100671.56;4792271;29;6829;-71
2022/12/19 10:58:31;;;;;;;;;;;;;;;14.52;53.40;100668.38;4783143;29;6809;-72
2022/12/19 11:01:04;;;;;;;;;;;;;;;14.60;53.40;100671.25;4801620;29;7926;-72
2022/12/19 11:03:32;;;;;;;;;;;;;;;14.67;53.66;100668.03;4776309;29;8324;-71
2022/12/19 11:06:01;;;;;;;;;;;;;;;14.74;53.56;100658.88;4776595;29;6868;-72
2022/12/19 11:08:34;;;;;;;;;;;;;;;14.82;53.35;100650.56;4766952;29;6809;-71
2022/12/19 11:11:02;;;;;;;;;;;;;;;14.92;53.39;100650.88;4795734;29;7417;-71
2022/12/19 11:13:46;;;;;;;;;;;;;;;15.01;52.81;100658.94;4792821;29;7242;-70
2022/12/19 11:16:21;;;;;;;;;;;;;;;15.09;53.34;100641.13;4779079;29;6805;-71
2022/12/19 11:18:48;;;;;;;;;;;;;;;15.20;52.86;100651.81;4798741;29;7212;-71
2022/12/19 11:21:29;;;;;;;;;;;;;;;15.33;52.68;100641.03;4791373;29;6793;-70
2022/12/19 11:23:58;;;;;;;;;;;;;;;15.44;52.50;100637.94;4788410;29;6904;-72
2022/12/19 11:26:32;;;;;;;;;;;;;;;15.55;52.15;100637.44;4795398;29;6955;-71
2022/12/19 11:29:15;;;;;;;;;;;;;;;15.67;52.15;100642.13;4802295;29;6909;-71
2022/12/19 11:31:43;;;;;;;;;;;;;;;15.77;51.82;100647.59;4780562;29;6849;-71
2022/12/19 11:34:22;;;;;;;;;;;;;;;15.85;51.27;100646.13;4771993;29;7981;-71
2022/12/19 11:37:20;;;;;;;;;;;;;;;15.96;51.33;100651.63;4771712;29;7732;-71
2022/12/19 11:40:21;;;;;;;;;;;;;;;16.06;51.20;100656.22;4800878;29;6817;-71
2022/12/19 11:43:20;;;;;;;;;;;;;;;16.17;51.07;100646.22;4775372;29;8532;-70
2022/12/19 11:46:17;;;;;;;;;;;;;;;16.27;51.43;100649.91;4798649;29;7415;-70
2022/12/19 11:48:59;;;;;;;;;;;;;;;16.36;50.48;100649.31;4795656;29;8071;-72
2022/12/19 11:51:33;;;;;;;;;;;;;;;16.46;50.15;100645.28;4785122;29;6821;-72
2022/12/19 11:54:29;;;;;;;;;;;;;;;16.56;50.21;100649.00;4770454;29;8591;-71
2022/12/19 11:56:56;;;;;;;;;;;;;;;16.60;49.87;100643.06;4798319;29;7061;-72
2022/12/19 11:59:35;;;;;;;;;;;;;;;16.66;50.04;100638.94;4780810;29;6947;-71
2022/12/19 12:02:21;;;;;;;;;;;;;;;16.78;49.60;100628.03;4787306;29;6819;-72
2022/12/19 12:05:24;;;;;;;;;;;;;;;16.94;48.90;100612.91;4804596;29;7067;-71
2022/12/19 12:08:36;;;;;;;;;;;;;;;17.03;48.83;100612.28;4803276;29;6962;-71
2022/12/19 12:11:36;;;;;;;;;;;;;;;17.04;48.51;100609.72;4754350;29;7251;-71
2022/12/19 12:14:17;;;;;;;;;;;;;;;16.98;48.32;100601.78;4787514;29;7287;-71
2022/12/19 12:16:49;;;;;;;;;;;;;;;16.90;47.55;100595.53;4781895;29;6901;-71
2022/12/19 12:20:10;;;;;;;;;;;;;;;16.85;47.82;100599.72;4783496;29;6813;-70
2022/12/19 12:22:48;;;;;;;;;;;;;;;16.75;47.80;100588.25;4798912;29;6824;-70
2022/12/19 12:25:37;;;;;;;;;;;;;;;16.72;47.26;100593.34;4790055;29;6809;-72
2022/12/19 12:28:55;;;;;;;;;;;;;;;16.70;47.17;100582.09;4788274;29;8574;-71
2022/12/19 12:31:59;;;;;;;;;;;;;;;16.63;47.33;100581.06;4782256;29;8589;-71
2022/12/19 12:35:03;;;;;;;;;;;;;;;16.58;47.07;100577.47;4801966;29;6825;-71
2022/12/19 12:37:58;;;;;;;;;;;;;;;16.53;46.87;100574.75;4804606;29;7017;-71
2022/12/19 12:40:58;;;;;;;;;;;;;;;16.48;46.78;100589.28;4788844;29;6837;-72
2022/12/19 12:43:57;;;;;;;;;;;;;;;16.41;47.16;100593.41;4782801;29;6813;-72
2022/12/19 12:46:33;;;;;;;;;;;;;;;16.34;46.57;100596.69;4760827;29;6854;-71
2022/12/19 12:49:12;;;;;;;;;;;;;;;16.28;46.39;100592.22;4772896;29;6805;-71
2022/12/19 12:51:39;;;;;;;;;;;;;;;16.26;46.47;100593.88;4780621;29;9129;-72
2022/12/19 12:54:13;;;;;;;;;;;;;;;16.25;46.73;100597.28;4785410;29;7678;-71
2022/12/19 12:56:41;;;;;;;;;;;;;;;16.27;46.39;100587.84;4782595;29;7018;-71
2022/12/19 12:59:37;;;;;;;;;;;;;;;16.27;46.91;100579.25;4787752;29;6794;-70
2022/12/19 13:02:22;;;;;;;;;;;;;;;16.26;46.78;100572.31;4765937;29;9081;-72
2022/12/19 13:04:59;;;;;;;;;;;;;;;16.24;46.43;100573.16;4794178;29;7911;-71
2022/12/19 13:07:41;;;;;;;;;;;;;;;16.22;46.38;100579.09;4777512;29;6864;-71
2022/12/19 13:10:17;;;;;;;;;;;;;;;16.21;46.18;100579.94;4779438;29;6817;-71
2022/12/19 13:13:00;;;;;;;;;;;;;;;16.20;46.43;100580.78;4780460;29;7244;-71
2022/12/19 13:15:33;;;;;;;;;;;;;;;16.18;46.24;100587.63;4781649;29;6829;-72
2022/12/19 13:18:31;;;;;;;;;;;;;;;16.16;45.95;100578.94;4798633;29;6876;-71
2022/12/19 13:20:59;;;;;;;;;;;;;;;16.11;46.29;100586.56;4796723;29;7328;-71
2022/12/19 13:23:48;;;;;;;;;;;;;;;16.09;46.38;100580.47;4756266;29;8759;-71
2022/12/19 13:26:48;;;;;;;;;;;;;;;16.07;46.29;100583.00;4779608;29;7121;-72
2022/12/19 13:29:33;;;;;;;;;;;;;;;16.02;46.12;100571.66;4768840;29;7562;-72
2022/12/19 13:32:15;;;;;;;;;;;;;;;16.00;46.17;100573.34;4783701;29;6821;-72